sensor_id;sensor_type;location;lat;lon;timestamp;temperature;humidity
10336;DHT22;5213;53.548;9.930;2023-07-24T00:01:12;17.60;1.00
10336;DHT22;5213;53.548;9.930;2023-07-24T00:03:38;17.50;1.00
10336;DHT22;5213;53.548;9.930;2023-07-24T00:06:03;17.50;1.00
10336;DHT22;5213;53.548;9.930;2023-07-24T00:08:29;17.60;1.00
10336;DHT22;5213;53.548;9.930;2023-07-24T00:10:54;17.50;1.00
10336;DHT22;5213;53.548;9.930;2023-07-24T00:13:20;17.50;1.00
10336;DHT22;5213;53.548;9.930;2023-07-24T00:15:46;17.50;1.00
10336;DHT22;5213;53.548;9.930;2023-07-24T00:18:11;17.50;1.00
10336;DHT22;5213;53.548;9.930;2023-07-24T00:20:37;17.50;1.00
10336;DHT22;5213;53.548;9.930;2023-07-24T00:23:03;17.60;1.00
10336;DHT22;5213;53.548;9.930;2023-07-24T00:25:28;17.50;1.00
10336;DHT22;5213;53.548;9.930;2023-07-24T00:27:54;17.50;1.00
10336;DHT22;5213;53.548;9.930;2023-07-24T00:30:19;17.50;1.00
10336;DHT22;5213;53.548;9.930;2023-07-24T00:32:45;17.40;1.00
10336;DHT22;5213;53.548;9.930;2023-07-24T00:35:10;17.30;1.00
10336;DHT22;5213;53.548;9.930;2023-07-24T00:37:36;17.30;1.00
10336;DHT22;5213;53.548;9.930;2023-07-24T00:40:02;17.30;1.00
10336;DHT22;5213;53.548;9.930;2023-07-24T00:42:29;17.20;1.00
10336;DHT22;5213;53.548;9.930;2023-07-24T00:44:55;17.10;1.00
10336;DHT22;5213;53.548;9.930;2023-07-24T00:47:21;17.30;1.00
10336;DHT22;5213;53.548;9.930;2023-07-24T00:49:47;17.40;1.00
10336;DHT22;5213;53.548;9.930;2023-07-24T00:52:14;17.60;1.00
10336;DHT22;5213;53.548;9.930;2023-07-24T00:54:41;17.70;1.00
10336;DHT22;5213;53.548;9.930;2023-07-24T00:57:07;17.70;1.00
10336;DHT22;5213;53.548;9.930;2023-07-24T00:59:33;17.70;1.00
10336;DHT22;5213;53.548;9.930;2023-07-24T01:01:59;17.70;1.00
10336;DHT22;5213;53.548;9.930;2023-07-24T01:04:24;17.70;1.00
10336;DHT22;5213;53.548;9.930;2023-07-24T01:06:50;17.60;1.00
10336;DHT22;5213;53.548;9.930;2023-07-24T01:09:16;17.50;1.00
10336;DHT22;5213;53.548;9.930;2023-07-24T01:11:46;17.60;1.00
10336;DHT22;5213;53.548;9.930;2023-07-24T01:16:48;17.70;1.00
10336;DHT22;5213;53.548;9.930;2023-07-24T01:22:20;17.70;1.00
10336;DHT22;5213;53.548;9.930;2023-07-24T01:25:12;17.70;1.00
10336;DHT22;5213;53.548;9.930;2023-07-24T01:27:45;17.70;1.00
10336;DHT22;5213;53.548;9.930;2023-07-24T01:30:13;17.80;1.00
10336;DHT22;5213;53.548;9.930;2023-07-24T01:32:39;17.80;1.00
10336;DHT22;5213;53.548;9.930;2023-07-24T01:35:05;17.80;1.00
10336;DHT22;5213;53.548;9.930;2023-07-24T01:37:31;17.80;1.00
10336;DHT22;5213;53.548;9.930;2023-07-24T01:39:59;17.70;1.00
10336;DHT22;5213;53.548;9.930;2023-07-24T01:42:25;17.80;1.00
10336;DHT22;5213;53.548;9.930;2023-07-24T01:44:55;17.70;1.00
10336;DHT22;5213;53.548;9.930;2023-07-24T01:47:21;17.70;1.00
10336;DHT22;5213;53.548;9.930;2023-07-24T01:49:47;17.80;1.00
10336;DHT22;5213;53.548;9.930;2023-07-24T01:52:13;17.80;1.00
10336;DHT22;5213;53.548;9.930;2023-07-24T01:54:39;17.80;1.00
10336;DHT22;5213;53.548;9.930;2023-07-24T01:57:05;17.80;1.00
10336;DHT22;5213;53.548;9.930;2023-07-24T01:59:30;17.90;1.00
10336;DHT22;5213;53.548;9.930;2023-07-24T02:01:56;17.90;1.00
10336;DHT22;5213;53.548;9.930;2023-07-24T02:04:22;17.90;1.00
10336;DHT22;5213;53.548;9.930;2023-07-24T02:06:48;17.90;1.00
10336;DHT22;5213;53.548;9.930;2023-07-24T02:09:15;17.90;1.00
10336;DHT22;5213;53.548;9.930;2023-07-24T02:11:41;17.80;1.00
10336;DHT22;5213;53.548;9.930;2023-07-24T02:14:06;17.80;1.00
10336;DHT22;5213;53.548;9.930;2023-07-24T02:16:32;17.80;1.00
10336;DHT22;5213;53.548;9.930;2023-07-24T02:18:58;17.80;1.00
10336;DHT22;5213;53.548;9.930;2023-07-24T02:21:23;17.80;1.00
10336;DHT22;5213;53.548;9.930;2023-07-24T02:23:49;17.80;1.00
10336;DHT22;5213;53.548;9.930;2023-07-24T02:26:14;17.80;1.00
10336;DHT22;5213;53.548;9.930;2023-07-24T02:28:40;17.80;1.00
10336;DHT22;5213;53.548;9.930;2023-07-24T02:31:06;17.80;1.00
10336;DHT22;5213;53.548;9.930;2023-07-24T02:33:31;17.70;1.00
10336;DHT22;5213;53.548;9.930;2023-07-24T02:35:57;17.70;1.00
10336;DHT22;5213;53.548;9.930;2023-07-24T02:38:23;17.60;1.00
10336;DHT22;5213;53.548;9.930;2023-07-24T02:40:49;17.50;1.00
10336;DHT22;5213;53.548;9.930;2023-07-24T02:43:14;17.50;1.00
10336;DHT22;5213;53.548;9.930;2023-07-24T02:45:40;17.40;1.00
10336;DHT22;5213;53.548;9.930;2023-07-24T02:48:06;17.40;1.00
10336;DHT22;5213;53.548;9.930;2023-07-24T02:50:33;17.40;1.00
10336;DHT22;5213;53.548;9.930;2023-07-24T02:52:58;17.30;1.00
10336;DHT22;5213;53.548;9.930;2023-07-24T02:55:24;17.30;1.00
10336;DHT22;5213;53.548;9.930;2023-07-24T02:57:50;17.20;1.00
10336;DHT22;5213;53.548;9.930;2023-07-24T03:00:16;17.20;1.00
10336;DHT22;5213;53.548;9.930;2023-07-24T03:02:42;17.30;1.00
10336;DHT22;5213;53.548;9.930;2023-07-24T03:05:08;17.30;1.00
10336;DHT22;5213;53.548;9.930;2023-07-24T03:07:34;17.40;1.00
10336;DHT22;5213;53.548;9.930;2023-07-24T03:09:59;17.50;1.00
10336;DHT22;5213;53.548;9.930;2023-07-24T03:12:25;17.50;1.00
10336;DHT22;5213;53.548;9.930;2023-07-24T03:14:51;17.60;1.00
10336;DHT22;5213;53.548;9.930;2023-07-24T03:17:16;17.60;1.00
10336;DHT22;5213;53.548;9.930;2023-07-24T03:19:42;17.70;1.00
10336;DHT22;5213;53.548;9.930;2023-07-24T03:22:07;17.70;1.00
10336;DHT22;5213;53.548;9.930;2023-07-24T03:24:34;17.70;1.00
10336;DHT22;5213;53.548;9.930;2023-07-24T03:27:00;17.70;1.00
10336;DHT22;5213;53.548;9.930;2023-07-24T03:29:26;17.70;1.00
10336;DHT22;5213;53.548;9.930;2023-07-24T03:31:52;17.70;1.00
10336;DHT22;5213;53.548;9.930;2023-07-24T03:34:17;17.70;1.00
10336;DHT22;5213;53.548;9.930;2023-07-24T03:36:43;17.60;1.00
10336;DHT22;5213;53.548;9.930;2023-07-24T03:39:10;17.50;1.00
10336;DHT22;5213;53.548;9.930;2023-07-24T03:41:35;17.40;1.00
10336;DHT22;5213;53.548;9.930;2023-07-24T03:44:01;17.30;1.00
10336;DHT22;5213;53.548;9.930;2023-07-24T03:46:26;17.20;1.00
10336;DHT22;5213;53.548;9.930;2023-07-24T03:48:52;17.10;1.00
10336;DHT22;5213;53.548;9.930;2023-07-24T03:51:17;17.10;1.00
10336;DHT22;5213;53.548;9.930;2023-07-24T03:53:43;17.10;1.00
10336;DHT22;5213;53.548;9.930;2023-07-24T03:56:09;17.10;1.00
10336;DHT22;5213;53.548;9.930;2023-07-24T03:58:34;17.00;1.00
10336;DHT22;5213;53.548;9.930;2023-07-24T04:01:00;17.00;1.00
10336;DHT22;5213;53.548;9.930;2023-07-24T04:03:26;17.10;1.00
10336;DHT22;5213;53.548;9.930;2023-07-24T04:05:51;17.10;1.00
10336;DHT22;5213;53.548;9.930;2023-07-24T04:08:17;17.20;1.00
10336;DHT22;5213;53.548;9.930;2023-07-24T04:10:42;17.20;1.00
10336;DHT22;5213;53.548;9.930;2023-07-24T04:13:08;17.20;1.00
10336;DHT22;5213;53.548;9.930;2023-07-24T04:15:33;17.30;1.00
10336;DHT22;5213;53.548;9.930;2023-07-24T04:17:59;17.20;1.00
10336;DHT22;5213;53.548;9.930;2023-07-24T04:20:24;17.30;1.00
10336;DHT22;5213;53.548;9.930;2023-07-24T04:22:50;17.30;1.00
10336;DHT22;5213;53.548;9.930;2023-07-24T04:25:16;17.40;5.20
10336;DHT22;5213;53.548;9.930;2023-07-24T04:27:41;17.50;33.00
10336;DHT22;5213;53.548;9.930;2023-07-24T04:30:07;17.60;78.90
10336;DHT22;5213;53.548;9.930;2023-07-24T04:32:33;17.70;99.90
10336;DHT22;5213;53.548;9.930;2023-07-24T04:34:59;17.80;99.90
10336;DHT22;5213;53.548;9.930;2023-07-24T04:37:24;17.80;99.90
10336;DHT22;5213;53.548;9.930;2023-07-24T04:39:50;17.90;99.90
10336;DHT22;5213;53.548;9.930;2023-07-24T04:42:16;18.00;99.90
10336;DHT22;5213;53.548;9.930;2023-07-24T04:44:41;18.00;99.90
10336;DHT22;5213;53.548;9.930;2023-07-24T04:47:07;18.30;99.90
10336;DHT22;5213;53.548;9.930;2023-07-24T04:49:32;18.50;99.90
10336;DHT22;5213;53.548;9.930;2023-07-24T04:51:59;18.50;99.90
10336;DHT22;5213;53.548;9.930;2023-07-24T04:54:25;18.50;95.50
10336;DHT22;5213;53.548;9.930;2023-07-24T04:56:51;18.60;90.60
10336;DHT22;5213;53.548;9.930;2023-07-24T04:59:16;18.60;77.40
10336;DHT22;5213;53.548;9.930;2023-07-24T05:01:42;18.50;59.50
10336;DHT22;5213;53.548;9.930;2023-07-24T05:04:08;18.50;47.20
10336;DHT22;5213;53.548;9.930;2023-07-24T05:06:33;18.40;35.50
10336;DHT22;5213;53.548;9.930;2023-07-24T05:09:01;18.40;25.10
10336;DHT22;5213;53.548;9.930;2023-07-24T05:11:26;18.40;21.10
10336;DHT22;5213;53.548;9.930;2023-07-24T05:13:52;18.40;15.60
10336;DHT22;5213;53.548;9.930;2023-07-24T05:16:18;18.60;16.20
10336;DHT22;5213;53.548;9.930;2023-07-24T05:18:43;18.80;17.50
10336;DHT22;5213;53.548;9.930;2023-07-24T05:21:09;18.90;11.90
10336;DHT22;5213;53.548;9.930;2023-07-24T05:23:35;19.20;3.00
10336;DHT22;5213;53.548;9.930;2023-07-24T05:26:02;19.30;1.00
10336;DHT22;5213;53.548;9.930;2023-07-24T05:28:29;19.40;1.00
10336;DHT22;5213;53.548;9.930;2023-07-24T05:30:55;19.40;1.00
10336;DHT22;5213;53.548;9.930;2023-07-24T05:33:21;19.30;1.00
10336;DHT22;5213;53.548;9.930;2023-07-24T05:35:48;19.30;1.00
10336;DHT22;5213;53.548;9.930;2023-07-24T05:38:15;19.20;1.00
10336;DHT22;5213;53.548;9.930;2023-07-24T05:40:40;19.20;1.00
10336;DHT22;5213;53.548;9.930;2023-07-24T05:43:06;19.20;1.00
10336;DHT22;5213;53.548;9.930;2023-07-24T05:45:32;19.20;1.00
10336;DHT22;5213;53.548;9.930;2023-07-24T05:47:57;19.30;1.00
10336;DHT22;5213;53.548;9.930;2023-07-24T05:50:23;19.30;1.00
10336;DHT22;5213;53.548;9.930;2023-07-24T05:52:48;19.20;1.00
10336;DHT22;5213;53.548;9.930;2023-07-24T05:55:14;19.10;1.00
10336;DHT22;5213;53.548;9.930;2023-07-24T05:57:39;19.00;1.00
10336;DHT22;5213;53.548;9.930;2023-07-24T06:00:06;18.90;1.00
10336;DHT22;5213;53.548;9.930;2023-07-24T06:02:32;18.80;1.00
10336;DHT22;5213;53.548;9.930;2023-07-24T06:04:57;18.70;1.00
10336;DHT22;5213;53.548;9.930;2023-07-24T06:07:23;18.80;1.00
10336;DHT22;5213;53.548;9.930;2023-07-24T06:09:49;18.80;1.00
10336;DHT22;5213;53.548;9.930;2023-07-24T06:12:14;18.80;1.00
10336;DHT22;5213;53.548;9.930;2023-07-24T06:14:40;18.90;1.00
10336;DHT22;5213;53.548;9.930;2023-07-24T06:17:06;19.10;1.00
10336;DHT22;5213;53.548;9.930;2023-07-24T06:19:32;19.20;1.00
10336;DHT22;5213;53.548;9.930;2023-07-24T06:21:57;19.20;1.00
10336;DHT22;5213;53.548;9.930;2023-07-24T06:24:23;19.40;1.00
10336;DHT22;5213;53.548;9.930;2023-07-24T06:26:50;19.40;1.00
10336;DHT22;5213;53.548;9.930;2023-07-24T06:29:15;19.30;1.00
10336;DHT22;5213;53.548;9.930;2023-07-24T06:31:41;19.30;1.00
10336;DHT22;5213;53.548;9.930;2023-07-24T06:34:07;19.40;1.00
10336;DHT22;5213;53.548;9.930;2023-07-24T06:36:33;19.50;1.00
10336;DHT22;5213;53.548;9.930;2023-07-24T06:38:59;19.70;1.00
10336;DHT22;5213;53.548;9.930;2023-07-24T06:41:24;19.80;1.00
10336;DHT22;5213;53.548;9.930;2023-07-24T06:43:51;19.80;1.00
10336;DHT22;5213;53.548;9.930;2023-07-24T06:46:17;19.90;1.00
10336;DHT22;5213;53.548;9.930;2023-07-24T06:48:43;20.00;1.00
10336;DHT22;5213;53.548;9.930;2023-07-24T06:51:08;20.00;1.00
10336;DHT22;5213;53.548;9.930;2023-07-24T06:53:34;20.00;1.00
10336;DHT22;5213;53.548;9.930;2023-07-24T06:56:00;20.10;1.00
10336;DHT22;5213;53.548;9.930;2023-07-24T06:58:26;20.10;1.00
10336;DHT22;5213;53.548;9.930;2023-07-24T07:00:51;20.20;1.00
10336;DHT22;5213;53.548;9.930;2023-07-24T07:03:17;20.10;1.00
10336;DHT22;5213;53.548;9.930;2023-07-24T07:05:43;19.90;1.00
10336;DHT22;5213;53.548;9.930;2023-07-24T07:08:09;19.80;1.00
10336;DHT22;5213;53.548;9.930;2023-07-24T07:10:34;19.60;1.00
10336;DHT22;5213;53.548;9.930;2023-07-24T07:13:00;19.50;1.00
10336;DHT22;5213;53.548;9.930;2023-07-24T07:15:25;19.50;1.00
10336;DHT22;5213;53.548;9.930;2023-07-24T07:17:51;19.40;1.00
10336;DHT22;5213;53.548;9.930;2023-07-24T07:20:17;19.40;1.00
10336;DHT22;5213;53.548;9.930;2023-07-24T07:22:42;19.30;1.00
10336;DHT22;5213;53.548;9.930;2023-07-24T07:25:08;19.30;1.00
10336;DHT22;5213;53.548;9.930;2023-07-24T07:27:34;19.30;1.00
10336;DHT22;5213;53.548;9.930;2023-07-24T07:30:00;19.30;1.00
10336;DHT22;5213;53.548;9.930;2023-07-24T07:32:25;19.40;1.00
10336;DHT22;5213;53.548;9.930;2023-07-24T07:34:52;19.40;1.00
10336;DHT22;5213;53.548;9.930;2023-07-24T07:37:18;19.50;1.00
10336;DHT22;5213;53.548;9.930;2023-07-24T07:39:43;19.50;1.00
10336;DHT22;5213;53.548;9.930;2023-07-24T07:42:09;19.60;1.00
10336;DHT22;5213;53.548;9.930;2023-07-24T07:44:35;19.60;1.00
10336;DHT22;5213;53.548;9.930;2023-07-24T07:47:00;19.70;1.00
10336;DHT22;5213;53.548;9.930;2023-07-24T07:49:26;19.60;1.00
10336;DHT22;5213;53.548;9.930;2023-07-24T07:51:51;19.60;1.00
10336;DHT22;5213;53.548;9.930;2023-07-24T07:54:17;19.80;1.00
10336;DHT22;5213;53.548;9.930;2023-07-24T07:56:43;20.00;1.00
10336;DHT22;5213;53.548;9.930;2023-07-24T07:59:08;20.20;1.00
10336;DHT22;5213;53.548;9.930;2023-07-24T08:01:36;20.50;1.00
10336;DHT22;5213;53.548;9.930;2023-07-24T08:04:04;20.60;1.00
10336;DHT22;5213;53.548;9.930;2023-07-24T08:06:30;20.60;1.00
10336;DHT22;5213;53.548;9.930;2023-07-24T08:08:56;20.60;1.00
10336;DHT22;5213;53.548;9.930;2023-07-24T08:11:21;20.70;1.00
10336;DHT22;5213;53.548;9.930;2023-07-24T08:13:47;20.50;1.00
10336;DHT22;5213;53.548;9.930;2023-07-24T08:16:13;20.50;1.00
10336;DHT22;5213;53.548;9.930;2023-07-24T08:18:44;20.40;1.00
10336;DHT22;5213;53.548;9.930;2023-07-24T08:21:10;20.50;1.00
10336;DHT22;5213;53.548;9.930;2023-07-24T08:23:35;20.80;1.00
10336;DHT22;5213;53.548;9.930;2023-07-24T08:26:01;20.90;1.00
10336;DHT22;5213;53.548;9.930;2023-07-24T08:28:28;21.10;1.00
10336;DHT22;5213;53.548;9.930;2023-07-24T08:30:59;21.00;1.00
10336;DHT22;5213;53.548;9.930;2023-07-24T08:33:27;21.10;1.00
10336;DHT22;5213;53.548;9.930;2023-07-24T08:36:00;21.00;1.00
10336;DHT22;5213;53.548;9.930;2023-07-24T08:38:26;21.10;1.00
10336;DHT22;5213;53.548;9.930;2023-07-24T08:41:12;21.20;1.00
10336;DHT22;5213;53.548;9.930;2023-07-24T08:43:42;21.10;1.00
10336;DHT22;5213;53.548;9.930;2023-07-24T08:46:09;21.20;1.00
10336;DHT22;5213;53.548;9.930;2023-07-24T08:48:44;21.20;1.00
10336;DHT22;5213;53.548;9.930;2023-07-24T08:51:11;21.20;99.90
10336;DHT22;5213;53.548;9.930;2023-07-24T08:53:42;21.10;99.90
10336;DHT22;5213;53.548;9.930;2023-07-24T08:56:11;21.30;99.90
10336;DHT22;5213;53.548;9.930;2023-07-24T08:58:37;21.70;99.90
10336;DHT22;5213;53.548;9.930;2023-07-24T09:01:05;22.20;99.90
10336;DHT22;5213;53.548;9.930;2023-07-24T09:03:32;21.70;99.90
10336;DHT22;5213;53.548;9.930;2023-07-24T09:05:58;22.00;99.90
10336;DHT22;5213;53.548;9.930;2023-07-24T09:08:38;22.20;99.90
10336;DHT22;5213;53.548;9.930;2023-07-24T09:11:05;22.50;99.90
10336;DHT22;5213;53.548;9.930;2023-07-24T09:13:31;22.50;99.90
10336;DHT22;5213;53.548;9.930;2023-07-24T09:15:57;22.30;99.90
10336;DHT22;5213;53.548;9.930;2023-07-24T09:18:24;22.00;99.90
10336;DHT22;5213;53.548;9.930;2023-07-24T09:20:50;22.00;99.90
10336;DHT22;5213;53.548;9.930;2023-07-24T09:23:28;22.10;99.90
10336;DHT22;5213;53.548;9.930;2023-07-24T09:25:53;22.10;99.90
10336;DHT22;5213;53.548;9.930;2023-07-24T09:28:19;21.70;99.90
10336;DHT22;5213;53.548;9.930;2023-07-24T09:30:54;21.60;99.90
10336;DHT22;5213;53.548;9.930;2023-07-24T09:33:22;21.80;99.90
10336;DHT22;5213;53.548;9.930;2023-07-24T09:35:59;21.70;99.90
10336;DHT22;5213;53.548;9.930;2023-07-24T09:38:25;21.60;99.90
10336;DHT22;5213;53.548;9.930;2023-07-24T09:40:52;21.50;99.90
10336;DHT22;5213;53.548;9.930;2023-07-24T09:43:24;21.90;99.90
10336;DHT22;5213;53.548;9.930;2023-07-24T09:45:51;22.40;99.90
10336;DHT22;5213;53.548;9.930;2023-07-24T09:48:18;22.60;99.90
10336;DHT22;5213;53.548;9.930;2023-07-24T09:50:46;22.40;99.90
10336;DHT22;5213;53.548;9.930;2023-07-24T09:56:03;22.10;99.90
10336;DHT22;5213;53.548;9.930;2023-07-24T09:58:32;22.50;99.90
10336;DHT22;5213;53.548;9.930;2023-07-24T10:01:01;22.60;99.90
10336;DHT22;5213;53.548;9.930;2023-07-24T10:03:27;22.60;99.90
10336;DHT22;5213;53.548;9.930;2023-07-24T10:05:53;22.60;99.90
10336;DHT22;5213;53.548;9.930;2023-07-24T10:08:20;22.70;99.90
10336;DHT22;5213;53.548;9.930;2023-07-24T10:10:45;23.00;99.90
10336;DHT22;5213;53.548;9.930;2023-07-24T10:13:12;23.00;99.90
10336;DHT22;5213;53.548;9.930;2023-07-24T10:15:41;22.80;99.90
10336;DHT22;5213;53.548;9.930;2023-07-24T10:18:08;22.70;99.90
10336;DHT22;5213;53.548;9.930;2023-07-24T10:20:39;22.60;99.90
10336;DHT22;5213;53.548;9.930;2023-07-24T10:23:11;22.50;99.90
10336;DHT22;5213;53.548;9.930;2023-07-24T10:25:39;22.70;99.90
10336;DHT22;5213;53.548;9.930;2023-07-24T10:28:10;23.10;99.90
10336;DHT22;5213;53.548;9.930;2023-07-24T10:30:38;23.00;99.90
10336;DHT22;5213;53.548;9.930;2023-07-24T10:33:13;22.90;99.90
10336;DHT22;5213;53.548;9.930;2023-07-24T10:35:43;22.60;99.90
10336;DHT22;5213;53.548;9.930;2023-07-24T10:38:10;22.70;99.90
10336;DHT22;5213;53.548;9.930;2023-07-24T10:40:36;22.70;99.90
10336;DHT22;5213;53.548;9.930;2023-07-24T10:43:09;22.70;99.90
10336;DHT22;5213;53.548;9.930;2023-07-24T10:46:01;22.60;99.90
10336;DHT22;5213;53.548;9.930;2023-07-24T10:48:27;22.80;99.90
10336;DHT22;5213;53.548;9.930;2023-07-24T10:50:53;22.70;99.90
10336;DHT22;5213;53.548;9.930;2023-07-24T10:53:20;23.00;99.90
10336;DHT22;5213;53.548;9.930;2023-07-24T10:55:47;23.30;99.90
10336;DHT22;5213;53.548;9.930;2023-07-24T10:58:13;23.30;99.90
10336;DHT22;5213;53.548;9.930;2023-07-24T11:00:40;23.10;99.90
10336;DHT22;5213;53.548;9.930;2023-07-24T11:03:10;23.00;99.90
10336;DHT22;5213;53.548;9.930;2023-07-24T11:05:40;23.20;99.90
10336;DHT22;5213;53.548;9.930;2023-07-24T11:08:15;23.30;99.90
10336;DHT22;5213;53.548;9.930;2023-07-24T11:10:59;23.20;99.90
10336;DHT22;5213;53.548;9.930;2023-07-24T11:13:27;23.10;99.90
10336;DHT22;5213;53.548;9.930;2023-07-24T11:15:54;23.00;99.90
10336;DHT22;5213;53.548;9.930;2023-07-24T11:18:21;23.40;99.90
10336;DHT22;5213;53.548;9.930;2023-07-24T11:20:52;23.30;99.90
10336;DHT22;5213;53.548;9.930;2023-07-24T11:23:18;23.40;99.90
10336;DHT22;5213;53.548;9.930;2023-07-24T11:25:44;23.60;99.90
10336;DHT22;5213;53.548;9.930;2023-07-24T11:28:13;23.70;99.90
10336;DHT22;5213;53.548;9.930;2023-07-24T11:30:39;23.30;99.90
10336;DHT22;5213;53.548;9.930;2023-07-24T11:33:06;23.40;99.90
10336;DHT22;5213;53.548;9.930;2023-07-24T11:35:33;23.60;99.90
10336;DHT22;5213;53.548;9.930;2023-07-24T11:37:59;24.00;99.90
10336;DHT22;5213;53.548;9.930;2023-07-24T11:43:02;23.60;99.90
10336;DHT22;5213;53.548;9.930;2023-07-24T11:45:30;23.80;99.90
10336;DHT22;5213;53.548;9.930;2023-07-24T11:47:56;23.80;99.90
10336;DHT22;5213;53.548;9.930;2023-07-24T11:50:22;24.40;99.90
10336;DHT22;5213;53.548;9.930;2023-07-24T11:52:51;25.00;99.90
10336;DHT22;5213;53.548;9.930;2023-07-24T11:55:30;25.20;99.90
10336;DHT22;5213;53.548;9.930;2023-07-24T11:58:01;24.70;99.90
10336;DHT22;5213;53.548;9.930;2023-07-24T12:00:27;24.70;99.90
10336;DHT22;5213;53.548;9.930;2023-07-24T12:02:58;24.80;99.90
10336;DHT22;5213;53.548;9.930;2023-07-24T12:05:24;24.80;99.90
10336;DHT22;5213;53.548;9.930;2023-07-24T12:07:49;25.00;99.90
10336;DHT22;5213;53.548;9.930;2023-07-24T12:10:25;25.00;99.90
10336;DHT22;5213;53.548;9.930;2023-07-24T12:12:57;25.00;99.90
10336;DHT22;5213;53.548;9.930;2023-07-24T12:15:23;24.80;99.90
10336;DHT22;5213;53.548;9.930;2023-07-24T12:17:49;24.80;99.90
10336;DHT22;5213;53.548;9.930;2023-07-24T12:20:14;24.70;99.90
10336;DHT22;5213;53.548;9.930;2023-07-24T12:22:41;24.60;99.90
10336;DHT22;5213;53.548;9.930;2023-07-24T12:25:07;24.50;99.90
10336;DHT22;5213;53.548;9.930;2023-07-24T12:27:32;24.70;99.90
10336;DHT22;5213;53.548;9.930;2023-07-24T12:30:00;24.50;99.90
10336;DHT22;5213;53.548;9.930;2023-07-24T12:32:26;25.00;99.90
10336;DHT22;5213;53.548;9.930;2023-07-24T12:34:52;25.30;99.90
10336;DHT22;5213;53.548;9.930;2023-07-24T12:37:18;25.50;99.90
10336;DHT22;5213;53.548;9.930;2023-07-24T12:39:45;25.50;99.90
10336;DHT22;5213;53.548;9.930;2023-07-24T12:42:11;25.00;99.90
10336;DHT22;5213;53.548;9.930;2023-07-24T12:44:37;25.00;99.90
10336;DHT22;5213;53.548;9.930;2023-07-24T12:47:04;24.90;99.90
10336;DHT22;5213;53.548;9.930;2023-07-24T12:49:30;24.90;99.90
10336;DHT22;5213;53.548;9.930;2023-07-24T12:51:55;24.70;99.90
10336;DHT22;5213;53.548;9.930;2023-07-24T12:54:21;24.60;99.90
10336;DHT22;5213;53.548;9.930;2023-07-24T12:56:48;24.50;99.90
10336;DHT22;5213;53.548;9.930;2023-07-24T12:59:13;24.70;99.90
10336;DHT22;5213;53.548;9.930;2023-07-24T13:01:39;24.90;99.90
10336;DHT22;5213;53.548;9.930;2023-07-24T13:04:05;24.70;99.90
10336;DHT22;5213;53.548;9.930;2023-07-24T13:06:31;24.50;99.90
10336;DHT22;5213;53.548;9.930;2023-07-24T13:08:56;24.20;99.90
10336;DHT22;5213;53.548;9.930;2023-07-24T13:11:22;24.10;99.90
10336;DHT22;5213;53.548;9.930;2023-07-24T13:13:47;24.40;99.90
10336;DHT22;5213;53.548;9.930;2023-07-24T13:16:15;24.60;99.90
10336;DHT22;5213;53.548;9.930;2023-07-24T13:18:41;24.90;99.90
10336;DHT22;5213;53.548;9.930;2023-07-24T13:21:07;25.10;99.90
10336;DHT22;5213;53.548;9.930;2023-07-24T13:23:33;25.60;99.90
10336;DHT22;5213;53.548;9.930;2023-07-24T13:25:59;25.70;99.90
10336;DHT22;5213;53.548;9.930;2023-07-24T13:28:24;25.60;99.10
10336;DHT22;5213;53.548;9.930;2023-07-24T13:30:50;25.60;99.20
10336;DHT22;5213;53.548;9.930;2023-07-24T13:33:15;25.50;98.80
10336;DHT22;5213;53.548;9.930;2023-07-24T13:35:41;24.90;98.80
10336;DHT22;5213;53.548;9.930;2023-07-24T13:38:07;24.60;99.90
10336;DHT22;5213;53.548;9.930;2023-07-24T13:40:36;24.30;99.90
10336;DHT22;5213;53.548;9.930;2023-07-24T13:43:01;24.20;99.90
10336;DHT22;5213;53.548;9.930;2023-07-24T13:45:28;24.30;99.90
10336;DHT22;5213;53.548;9.930;2023-07-24T13:47:54;24.70;99.90
10336;DHT22;5213;53.548;9.930;2023-07-24T13:50:20;25.00;99.90
10336;DHT22;5213;53.548;9.930;2023-07-24T13:52:45;25.20;98.00
10336;DHT22;5213;53.548;9.930;2023-07-24T13:55:11;25.40;95.90
10336;DHT22;5213;53.548;9.930;2023-07-24T13:57:36;25.70;95.10
10336;DHT22;5213;53.548;9.930;2023-07-24T14:00:03;26.00;93.00
10336;DHT22;5213;53.548;9.930;2023-07-24T14:02:28;25.90;84.80
10336;DHT22;5213;53.548;9.930;2023-07-24T14:04:54;25.90;85.00
10336;DHT22;5213;53.548;9.930;2023-07-24T14:07:20;25.90;82.40
10336;DHT22;5213;53.548;9.930;2023-07-24T14:09:45;25.80;84.00
10336;DHT22;5213;53.548;9.930;2023-07-24T14:12:11;25.50;83.00
10336;DHT22;5213;53.548;9.930;2023-07-24T14:14:36;25.50;85.10
10336;DHT22;5213;53.548;9.930;2023-07-24T14:17:02;25.10;86.40
10336;DHT22;5213;53.548;9.930;2023-07-24T14:19:28;25.00;88.10
10336;DHT22;5213;53.548;9.930;2023-07-24T14:21:54;25.20;86.50
10336;DHT22;5213;53.548;9.930;2023-07-24T14:24:19;25.40;83.00
10336;DHT22;5213;53.548;9.930;2023-07-24T14:26:45;25.50;81.30
10336;DHT22;5213;53.548;9.930;2023-07-24T14:29:11;25.50;82.10
10336;DHT22;5213;53.548;9.930;2023-07-24T14:31:37;25.50;83.30
10336;DHT22;5213;53.548;9.930;2023-07-24T14:34:03;25.30;83.60
10336;DHT22;5213;53.548;9.930;2023-07-24T14:36:29;25.30;81.90
10336;DHT22;5213;53.548;9.930;2023-07-24T14:39:02;25.20;82.00
10336;DHT22;5213;53.548;9.930;2023-07-24T14:41:28;25.00;81.70
10336;DHT22;5213;53.548;9.930;2023-07-24T14:43:54;25.00;81.70
10336;DHT22;5213;53.548;9.930;2023-07-24T14:46:19;25.00;83.00
10336;DHT22;5213;53.548;9.930;2023-07-24T14:48:45;24.70;84.10
10336;DHT22;5213;53.548;9.930;2023-07-24T14:51:11;24.40;84.90
10336;DHT22;5213;53.548;9.930;2023-07-24T14:53:37;24.30;88.80
10336;DHT22;5213;53.548;9.930;2023-07-24T14:56:03;24.00;90.90
10336;DHT22;5213;53.548;9.930;2023-07-24T14:58:29;23.90;92.20
10336;DHT22;5213;53.548;9.930;2023-07-24T15:00:54;23.80;94.40
10336;DHT22;5213;53.548;9.930;2023-07-24T15:03:20;23.70;96.20
10336;DHT22;5213;53.548;9.930;2023-07-24T15:05:46;23.70;98.70
10336;DHT22;5213;53.548;9.930;2023-07-24T15:08:12;23.60;99.90
10336;DHT22;5213;53.548;9.930;2023-07-24T15:10:38;23.60;99.90
10336;DHT22;5213;53.548;9.930;2023-07-24T15:13:03;23.70;99.90
10336;DHT22;5213;53.548;9.930;2023-07-24T15:15:29;23.80;99.70
10336;DHT22;5213;53.548;9.930;2023-07-24T15:17:55;23.90;99.10
10336;DHT22;5213;53.548;9.930;2023-07-24T15:20:21;23.90;99.80
10336;DHT22;5213;53.548;9.930;2023-07-24T15:22:47;23.80;98.80
10336;DHT22;5213;53.548;9.930;2023-07-24T15:25:12;23.70;99.90
10336;DHT22;5213;53.548;9.930;2023-07-24T15:27:39;23.60;99.70
10336;DHT22;5213;53.548;9.930;2023-07-24T15:30:05;23.40;99.90
10336;DHT22;5213;53.548;9.930;2023-07-24T15:32:31;23.10;99.90
10336;DHT22;5213;53.548;9.930;2023-07-24T15:34:57;21.80;99.90
10336;DHT22;5213;53.548;9.930;2023-07-24T15:37:22;20.60;99.90
10336;DHT22;5213;53.548;9.930;2023-07-24T15:39:49;20.00;99.90
10336;DHT22;5213;53.548;9.930;2023-07-24T15:42:15;19.80;99.90
10336;DHT22;5213;53.548;9.930;2023-07-24T15:44:41;19.20;99.90
10336;DHT22;5213;53.548;9.930;2023-07-24T15:47:06;18.90;99.90
10336;DHT22;5213;53.548;9.930;2023-07-24T15:49:32;18.80;99.90
10336;DHT22;5213;53.548;9.930;2023-07-24T15:51:57;18.70;99.90
10336;DHT22;5213;53.548;9.930;2023-07-24T15:54:23;18.20;99.90
10336;DHT22;5213;53.548;9.930;2023-07-24T15:56:49;17.80;99.90
10336;DHT22;5213;53.548;9.930;2023-07-24T15:59:15;17.60;99.90
10336;DHT22;5213;53.548;9.930;2023-07-24T16:01:41;17.50;99.90